Pagrindinis puslapis
METAR-TAF:

METAR-TAF

Oro uostai :

Silvio Pettirossi tarptautinis oro uostas

Asunsjonas, Paragvajus

platuma: 25-16S, ilguma: 057-38W, Aukštis: 101 m

Dabartinis oras

Ataskaita buvo paskelbta 14 minutes, ne 23:00 UTC
Vėjas 4 kt nuo kintamojo kryptimis
Temperatūra 14°C
Drėgmė 88%
Slėgis 1021 hPa
Matomumas: 5000 m
rūkana,

METAR: SGAS 302300Z VRB04KT 5000 BR NSC 14/12 Q1021

Laikas: 19:14 (23:14 UTC)

Prognozė

Ataskaita buvo paskelbta 7 valandos ir 14 minutes, ne 16:00 UTC
Prognozė galioja nuo 30 metu 18 UTC su 31 metu 18 UTC
Vėjas 6 kt iš Šiaurės Rytų
Matomumas 10 km arba daugiau
nėra debesų žemiau 1500 m ir nėra kamuolinių lietaus debesų
Laikinai
nuo 31 metu 08 UTC su 31 metu 11 UTC
Vėjas 4 kt nuo kintamojo kryptimis
Matomumas: 7000 m

TAF: SGAS 301600Z 3018/3118 05006KT CAVOK TX22/3018Z TN11/3109Z TEMPO 3108/3111 VRB04KT 7000 NSC

Orai ataskaitas ir orų prognozės (METAR, TAF).

turimą stotys yra geltonos ir raudonos taškus žemėlapyje.

Perkelti pele per norėdami pamatyti stoties vardą.

Tada spustelėkite, norėdami matyti oro stebėjimo ir prognozės.

Norėdami pakeisti žemėlapį: spustelėkite ant žalios mygtukų su juodo kryžiaus žemyn,; žalią mygtuką su brūkšneliu, jei norite nutolinti; arba žalių rodyklių gretimoms žemėlapius.


METAR-TAF: